createdAt,value
2019-02-15T00:03:00.000Z,6.0
2019-02-15T00:08:00.000Z,6.0
2019-02-15T00:13:00.000Z,6.0
2019-02-15T00:18:00.000Z,5.9
2019-02-15T00:23:00.000Z,5.9
2019-02-15T00:28:00.000Z,5.9
2019-02-15T00:33:00.000Z,5.8
2019-02-15T00:38:00.000Z,5.8
2019-02-15T00:43:00.000Z,5.8
2019-02-15T00:48:00.000Z,5.7
2019-02-15T00:53:00.000Z,5.7
2019-02-15T00:58:00.000Z,5.7
2019-02-15T01:03:00.000Z,5.6
2019-02-15T01:08:00.000Z,5.6
2019-02-15T01:13:00.000Z,5.6
2019-02-15T01:18:00.000Z,5.6
2019-02-15T01:23:00.000Z,5.5
2019-02-15T01:28:00.000Z,5.5
2019-02-15T01:33:00.000Z,5.5
2019-02-15T01:38:00.000Z,5.5
2019-02-15T01:43:00.000Z,5.4
2019-02-15T01:48:00.000Z,5.4
2019-02-15T01:53:00.000Z,5.4
2019-02-15T01:58:00.000Z,5.4
2019-02-15T02:03:00.000Z,5.3
2019-02-15T02:08:00.000Z,5.3
2019-02-15T02:13:00.000Z,5.2
2019-02-15T02:18:00.000Z,5.2
2019-02-15T02:23:00.000Z,5.1
2019-02-15T02:28:00.000Z,5.1
2019-02-15T02:33:00.000Z,5.0
2019-02-15T02:38:00.000Z,5.0
2019-02-15T02:43:00.000Z,5.0
2019-02-15T02:49:00.000Z,4.9
2019-02-15T02:54:00.000Z,4.9
2019-02-15T02:59:00.000Z,4.9
2019-02-15T03:04:00.000Z,4.9
2019-02-15T03:09:00.000Z,4.9
2019-02-15T03:14:00.000Z,4.9
2019-02-15T03:19:00.000Z,4.9
2019-02-15T03:24:00.000Z,4.9
2019-02-15T03:29:00.000Z,4.8
2019-02-15T03:34:00.000Z,4.8
2019-02-15T03:39:00.000Z,4.8
2019-02-15T03:44:00.000Z,4.8
2019-02-15T03:49:00.000Z,4.8
2019-02-15T03:54:00.000Z,4.8
2019-02-15T03:59:00.000Z,4.8
2019-02-15T04:04:00.000Z,4.8
2019-02-15T04:09:00.000Z,4.8
2019-02-15T04:14:00.000Z,4.8
2019-02-15T04:19:00.000Z,4.8
2019-02-15T04:24:00.000Z,4.8
2019-02-15T04:29:00.000Z,4.8
2019-02-15T04:34:00.000Z,4.8
2019-02-15T04:39:00.000Z,4.8
2019-02-15T04:44:00.000Z,4.8
2019-02-15T04:49:00.000Z,4.8
2019-02-15T04:54:00.000Z,4.8
2019-02-15T04:59:00.000Z,4.8
2019-02-15T05:04:00.000Z,4.8
2019-02-15T05:09:00.000Z,4.8
2019-02-15T05:14:00.000Z,4.8
2019-02-15T05:19:00.000Z,4.8
2019-02-15T05:24:00.000Z,4.8
2019-02-15T05:29:00.000Z,4.8
2019-02-15T05:34:00.000Z,4.8
2019-02-15T05:39:00.000Z,4.8
2019-02-15T05:44:00.000Z,4.8
2019-02-15T05:50:00.000Z,4.7
2019-02-15T05:55:00.000Z,4.7
2019-02-15T06:00:00.000Z,4.7
2019-02-15T06:05:00.000Z,4.7
2019-02-15T06:10:00.000Z,4.7
2019-02-15T06:15:00.000Z,4.6
2019-02-15T06:20:00.000Z,4.6
2019-02-15T06:25:00.000Z,4.6
2019-02-15T06:30:00.000Z,4.6
2019-02-15T06:35:00.000Z,4.6
2019-02-15T06:40:00.000Z,4.6
2019-02-15T06:45:00.000Z,4.7
2019-02-15T06:50:00.000Z,4.8
2019-02-15T06:55:00.000Z,4.9
2019-02-15T07:00:00.000Z,4.9
2019-02-15T07:05:00.000Z,5.0
2019-02-15T07:10:00.000Z,5.1
2019-02-15T07:15:00.000Z,5.2
2019-02-15T07:20:00.000Z,5.2
2019-02-15T07:25:00.000Z,5.3
2019-02-15T07:30:00.000Z,5.4
2019-02-15T07:35:00.000Z,5.4
2019-02-15T07:40:00.000Z,5.5
2019-02-15T07:45:00.000Z,5.6
2019-02-15T07:50:00.000Z,5.7
2019-02-15T07:55:00.000Z,5.8
2019-02-15T08:00:00.000Z,5.9
2019-02-15T08:05:00.000Z,6.0
2019-02-15T08:10:00.000Z,6.1
2019-02-15T08:15:00.000Z,6.1
2019-02-15T08:20:00.000Z,6.2
2019-02-15T08:25:00.000Z,6.3
2019-02-15T08:30:00.000Z,6.5
2019-02-15T08:35:00.000Z,6.6
2019-02-15T08:40:00.000Z,6.7
2019-02-15T08:45:00.000Z,6.9
2019-02-15T08:51:00.000Z,7.1
2019-02-15T08:56:00.000Z,7.3
2019-02-15T09:01:00.000Z,7.5
2019-02-15T09:06:00.000Z,8.7
2019-02-15T09:11:00.000Z,10.0
2019-02-15T09:16:00.000Z,11.1
2019-02-15T09:21:00.000Z,12.3
2019-02-15T09:26:00.000Z,13.3
2019-02-15T09:31:00.000Z,14.2
2019-02-15T09:36:00.000Z,14.8
2019-02-15T09:41:00.000Z,15.1
2019-02-15T09:46:00.000Z,15.2
2019-02-15T09:51:00.000Z,15.3
2019-02-15T09:56:00.000Z,15.6
2019-02-15T10:01:00.000Z,15.8
2019-02-15T10:06:00.000Z,16.0
2019-02-15T10:11:00.000Z,16.5
2019-02-15T10:16:00.000Z,16.7
2019-02-15T10:21:00.000Z,16.7
2019-02-15T10:26:00.000Z,17.0
2019-02-15T10:31:00.000Z,17.1
2019-02-15T10:36:00.000Z,17.1
2019-02-15T10:41:00.000Z,17.2
2019-02-15T10:46:00.000Z,17.1
2019-02-15T10:51:00.000Z,17.0
2019-02-15T10:56:00.000Z,16.9
2019-02-15T11:01:00.000Z,16.8
2019-02-15T11:06:00.000Z,16.4
2019-02-15T11:11:00.000Z,16.2
2019-02-15T11:16:00.000Z,16.1
2019-02-15T11:21:00.000Z,16.0
2019-02-15T11:26:00.000Z,15.7
2019-02-15T11:31:00.000Z,15.6
2019-02-15T11:36:00.000Z,15.3
2019-02-15T11:41:00.000Z,15.2
2019-02-15T11:46:00.000Z,15.1
2019-02-15T11:51:00.000Z,15.1
2019-02-15T11:56:00.000Z,14.8
2019-02-15T12:01:00.000Z,14.5
2019-02-15T12:07:00.000Z,14.0
2019-02-15T12:12:00.000Z,13.6
2019-02-15T12:17:00.000Z,13.2
2019-02-15T12:22:00.000Z,12.9
2019-02-15T12:27:00.000Z,12.7
2019-02-15T12:32:00.000Z,12.6
2019-02-15T12:37:00.000Z,12.5
2019-02-15T12:42:00.000Z,12.4
2019-02-15T12:47:00.000Z,12.4
2019-02-15T12:52:00.000Z,12.4
2019-02-15T12:57:00.000Z,12.4
2019-02-15T13:02:00.000Z,12.5
2019-02-15T13:07:00.000Z,12.5
2019-02-15T13:12:00.000Z,12.7
2019-02-15T13:17:00.000Z,12.9
2019-02-15T13:22:00.000Z,13.0
2019-02-15T13:27:00.000Z,13.1
2019-02-15T13:32:00.000Z,13.3
2019-02-15T13:37:00.000Z,13.4
2019-02-15T13:42:00.000Z,13.4
2019-02-15T13:47:00.000Z,13.4
2019-02-15T13:52:00.000Z,13.3
2019-02-15T13:57:00.000Z,13.3
2019-02-15T14:02:00.000Z,13.3
2019-02-15T14:07:00.000Z,13.2
2019-02-15T14:12:00.000Z,13.2
2019-02-15T14:17:00.000Z,13.0
2019-02-15T14:22:00.000Z,13.0
2019-02-15T14:27:00.000Z,12.9
2019-02-15T14:32:00.000Z,12.8
2019-02-15T14:37:00.000Z,12.7
2019-02-15T14:42:00.000Z,12.6
2019-02-15T14:47:00.000Z,12.5
2019-02-15T14:52:00.000Z,12.3
2019-02-15T14:57:00.000Z,12.2
2019-02-15T15:02:00.000Z,12.1
2019-02-15T15:07:00.000Z,11.9
2019-02-15T15:12:00.000Z,11.8
2019-02-15T15:17:00.000Z,11.7
2019-02-15T15:23:00.000Z,11.6
2019-02-15T15:28:00.000Z,11.5
2019-02-15T15:33:00.000Z,11.4
2019-02-15T15:38:00.000Z,11.3
2019-02-15T15:43:00.000Z,11.2
2019-02-15T15:48:00.000Z,11.1
2019-02-15T15:53:00.000Z,11.1
2019-02-15T15:58:00.000Z,11.0
2019-02-15T16:03:00.000Z,11.0
2019-02-15T16:08:00.000Z,10.9
2019-02-15T16:13:00.000Z,10.8
2019-02-15T16:18:00.000Z,10.8
2019-02-15T16:23:00.000Z,10.8
2019-02-15T16:28:00.000Z,10.8
2019-02-15T16:33:00.000Z,10.7
2019-02-15T16:38:00.000Z,10.6
2019-02-15T16:43:00.000Z,10.6
2019-02-15T16:48:00.000Z,10.5
2019-02-15T16:53:00.000Z,10.5
2019-02-15T16:58:00.000Z,10.4
2019-02-15T17:03:00.000Z,10.3
2019-02-15T17:08:00.000Z,10.2
2019-02-15T17:13:00.000Z,10.2
2019-02-15T17:18:00.000Z,10.1
2019-02-15T17:23:00.000Z,10.0
2019-02-15T17:28:00.000Z,9.9
2019-02-15T17:33:00.000Z,9.9
2019-02-15T17:38:00.000Z,9.8
2019-02-15T17:43:00.000Z,9.8
2019-02-15T17:48:00.000Z,9.7
2019-02-15T17:54:00.000Z,9.6
2019-02-15T17:59:00.000Z,9.6
2019-02-15T18:04:00.000Z,9.5
2019-02-15T18:09:00.000Z,9.5
2019-02-15T18:14:00.000Z,9.3
2019-02-15T18:19:00.000Z,9.3
2019-02-15T18:24:00.000Z,9.2
2019-02-15T18:29:00.000Z,9.1
2019-02-15T18:34:00.000Z,9.0
2019-02-15T18:39:00.000Z,8.8
2019-02-15T18:44:00.000Z,8.8
2019-02-15T18:49:00.000Z,8.7
2019-02-15T18:54:00.000Z,8.6
2019-02-15T18:59:00.000Z,8.6
2019-02-15T19:04:00.000Z,8.5
2019-02-15T19:09:00.000Z,8.5
2019-02-15T19:14:00.000Z,8.4
2019-02-15T19:19:00.000Z,8.5
2019-02-15T19:24:00.000Z,8.4
2019-02-15T19:29:00.000Z,8.4
2019-02-15T19:34:00.000Z,8.3
2019-02-15T19:39:00.000Z,8.3
2019-02-15T19:44:00.000Z,8.2
2019-02-15T19:49:00.000Z,8.1
2019-02-15T19:54:00.000Z,8.0
2019-02-15T19:59:00.000Z,8.0
2019-02-15T20:04:00.000Z,7.9
2019-02-15T20:09:00.000Z,7.9
2019-02-15T20:14:00.000Z,7.9
2019-02-15T20:19:00.000Z,7.9
2019-02-15T20:24:00.000Z,7.8
2019-02-15T20:29:00.000Z,7.8
2019-02-15T20:34:00.000Z,7.8
2019-02-15T20:39:00.000Z,7.7
2019-02-15T20:44:00.000Z,7.7
2019-02-15T20:49:00.000Z,7.6
2019-02-15T20:54:00.000Z,7.6
2019-02-15T20:59:00.000Z,7.6
2019-02-15T21:05:00.000Z,7.6
2019-02-15T21:10:00.000Z,7.6
2019-02-15T21:15:00.000Z,7.6
2019-02-15T21:20:00.000Z,7.6
2019-02-15T21:25:00.000Z,7.6
2019-02-15T21:30:00.000Z,7.6
2019-02-15T21:35:00.000Z,7.5
2019-02-15T21:40:00.000Z,7.5
2019-02-15T21:45:00.000Z,7.4
2019-02-15T21:50:00.000Z,7.3
2019-02-15T21:55:00.000Z,7.2
2019-02-15T22:00:00.000Z,7.1
2019-02-15T22:05:00.000Z,7.0
2019-02-15T22:10:00.000Z,6.9
2019-02-15T22:15:00.000Z,6.8
2019-02-15T22:20:00.000Z,6.7
2019-02-15T22:25:00.000Z,6.7
2019-02-15T22:30:00.000Z,6.7
2019-02-15T22:35:00.000Z,6.7
2019-02-15T22:40:00.000Z,6.7
2019-02-15T22:45:00.000Z,6.7
2019-02-15T22:50:00.000Z,6.7
2019-02-15T22:55:00.000Z,6.8
2019-02-15T23:00:00.000Z,6.8
2019-02-15T23:05:00.000Z,6.8
2019-02-15T23:10:00.000Z,6.8
2019-02-15T23:15:00.000Z,6.7
2019-02-15T23:20:00.000Z,6.7
2019-02-15T23:25:00.000Z,6.7
2019-02-15T23:30:00.000Z,6.7
2019-02-15T23:35:00.000Z,6.7
2019-02-15T23:40:00.000Z,6.8
2019-02-15T23:45:00.000Z,6.9
2019-02-15T23:50:00.000Z,6.9
2019-02-15T23:55:00.000Z,6.9
